Latest Coastal Weather Observations for Moruya Airport

IDN60701

Issued at 10:21 am EST Friday 14 August 2020 (issued every 10 minutes, with the page automatically refreshed every 10 minutes)

About coastal observations | Map of coastal stations | Coastal observations for NSW | Marine services | Other Formats
Station Details ID: 069148 Name: MORUYA AIRPORT AWS Lat: -35.90 Lon: 150.14 Height: 4.0 m
Data from the previous 72 hours. | See also: Recent months at Moruya Airport
Date/Time
EST
Wind Sea
Height
m
Swell Vis
km
Cloud Weather Temp
°C
Press
hPa
Rain since
9am
mm
Dir  Spd
kts
Gust
kts
Height
m
Period
s
Dir
14/10:00am ENE 4 5 - - - - 10 - - 14.6 1015.6 0.0
14/09:30am NE 6 7 - - - - 10 - - 13.3 1015.5 0.0
14/09:00am WSW 5 6 - - - - 10 - - 11.4 1015.8 0.0
14/08:30am CALM 0 0 - - - - 10 - - 9.8 1015.8 0.0
14/08:00am WSW 1 4 - - - - 10 - - 8.0 1015.3 0.0
14/07:30am CALM 0 0 - - - - 10 - - 6.9 1015.0 0.0
14/07:00am WSW 3 5 - - - - 10 - - 5.9 1014.4 0.0
14/06:57am WSW 4 6 - - - - 10 - - 6.0 1014.3 0.0
14/06:30am CALM 0 0 - - - - 4 - - 5.5 1014.9 0.0
14/06:25am CALM 0 0 - - - - 7 - - 5.5 1015.0 0.0
14/06:00am WSW 4 5 - - - - 1 - - 5.4 1014.8 0.0
14/05:30am NW 3 5 - - - - 0.9 - - 5.1 1014.7 0.0
14/05:00am CALM 0 0 - - - - 0.5 - - 5.8 1014.6 0.0
14/04:30am NW 4 6 - - - - 3 - - 6.0 1014.6 0.0
14/04:00am SW 3 6 - - - - 2 - - 6.9 1014.6 0.0
14/03:30am W 1 5 - - - - 2 - - 7.2 1014.5 0.0
14/03:00am CALM 0 0 - - - - 2 - - 6.5 1014.6 0.0
14/02:31am CALM 0 0 - - - - 5 - - 6.9 1014.6 0.0
14/02:30am CALM 0 0 - - - - 6 - - 7.0 1014.6 0.0
14/02:00am CALM 0 0 - - - - 0.4 - - 7.4 1015.0 0.0
14/01:44am CALM 0 0 - - - - 5 - - 7.7 1015.2 0.0
14/01:38am CALM 0 0 - - - - 10 - - 8.0 1015.2 0.0
14/01:30am CALM 0 0 - - - - 10 Partly cloudy - 7.7 1015.3 0.0
14/01:18am CALM 0 0 - - - - 5 Partly cloudy - 8.0 1015.3 0.0
14/01:00am CALM 0 0 - - - - 10 Partly cloudy - 8.3 1015.3 0.0
14/12:30am CALM 0 0 - - - - 10 Cloudy - 8.5 1015.3 0.0
14/12:00am CALM 0 0 - - - - 10 Partly cloudy - 7.9 1015.5 0.0
 
Date/Time
EST
Wind Sea
Height
m
Swell Vis
km
Cloud Weather Temp
°C
Press
hPa
Rain since
9am
mm
Dir  Spd
kts
Gust
kts
Height
m
Period
s
Dir
13/11:59pm CALM 0 0 - - - - 10 Partly cloudy - 7.9 1015.5 0.0
13/11:30pm CALM 0 0 - - - - 3 Partly cloudy - 8.5 1015.5 0.0
13/11:25pm CALM 0 0 - - - - 5 - - 8.4 1015.5 0.0
13/11:16pm CALM 0 0 - - - - 10 - - 8.4 1015.6 0.0
13/11:00pm CALM 0 0 - - - - 5 - - 8.7 1015.7 0.0
13/10:58pm CALM 0 1 - - - - 5 - - 8.7 1015.7 0.0
13/10:30pm CALM 0 0 - - - - 10 - - 8.4 1015.8 0.0
13/10:00pm CALM 0 0 - - - - 10 - - 8.6 1015.8 0.0
13/09:30pm CALM 0 0 - - - - 10 - - 9.5 1015.6 0.0
13/09:00pm CALM 0 0 - - - - 10 - - 10.5 1015.2 0.0
13/08:30pm CALM 0 0 - - - - 10 - - 10.6 1015.1 0.0
13/08:00pm CALM 0 0 - - - - 10 Partly cloudy - 11.8 1014.8 0.0
13/07:30pm CALM 0 0 - - - - 10 Cloudy - 12.3 1014.6 0.0
13/07:00pm CALM 0 0 - - - - 10 Cloudy - 12.5 1014.4 0.0
13/06:30pm CALM 0 0 - - - - 10 Partly cloudy - 12.0 1014.1 0.0
13/06:00pm CALM 0 0 - - - - 10 Partly cloudy - 13.5 1013.4 0.0
13/05:30pm CALM 0 0 - - - - 10 Partly cloudy - 15.3 1012.9 0.0
13/05:00pm CALM 0 0 - - - - 10 Cloudy - 16.4 1012.7 0.0
13/04:30pm ENE 1 4 - - - - 10 Cloudy - 17.0 1012.5 0.0
13/04:00pm ENE 4 5 - - - - 10 Partly cloudy - 17.6 1012.4 0.0
13/03:30pm ENE 4 5 - - - - 10 - - 18.1 1012.3 0.0
13/03:00pm E 5 6 - - - - 10 - - 17.9 1012.1 0.0
13/02:30pm E 6 7 - - - - 10 - - 18.5 1012.0 0.0
13/02:00pm ESE 6 9 - - - - 10 - - 18.9 1011.8 0.0
13/01:30pm ESE 7 9 - - - - 10 - - 19.2 1011.7 0.0
13/01:00pm ESE 8 9 - - - - 10 - - 19.5 1011.5 0.0
13/12:30pm E 6 7 - - - - 10 - - 19.6 1012.3 0.0
13/12:00pm ENE 6 7 - - - - 10 - - 19.8 1012.7 0.0
13/11:30am NE 5 6 - - - - 10 - - 18.8 1013.1 0.0
13/11:00am N 3 5 - - - - 10 - - 19.3 1013.1 0.0
13/10:30am W 4 7 - - - - 10 - - 19.1 1013.2 0.0
13/10:00am WSW 5 7 - - - - 10 - - 17.9 1013.1 0.0
13/09:30am W 5 7 - - - - 10 - - 16.4 1013.1 0.0
13/09:00am SSW 2 4 - - - - 10 - - 13.1 1013.0 0.4
13/08:30am SW 1 4 - - - - 10 - - 11.2 1013.2 0.4
13/08:00am SW 3 6 - - - - 10 - - 9.8 1012.7 0.4
13/07:30am W 3 6 - - - - 10 - - 7.5 1012.1 0.4
13/07:15am CALM 0 0 - - - - 10 - - 7.0 1011.8 0.4
13/07:00am WNW 1 4 - - - - 5 - - 6.4 1011.7 0.4
13/06:58am W 1 4 - - - - 5 - - 6.4 1011.7 0.4
13/06:56am W 1 4 - - - - 10 - - 6.7 1011.6 0.4
13/06:38am W 4 5 - - - - 5 - - 6.3 1011.4 0.4
13/06:30am W 1 5 - - - - 7 - - 6.5 1011.3 0.4
13/06:19am CALM 0 0 - - - - 10 - - 6.5 1011.2 0.4
13/06:02am CALM 0 0 - - - - 5 - - 6.6 1010.9 0.4
13/06:00am CALM 0 0 - - - - 7 - - 6.3 1010.9 0.4
13/05:30am SSW 1 5 - - - - 10 - - 7.7 1010.5 0.4
13/05:00am SW 5 6 - - - - 10 - - 8.7 1010.0 0.4
13/04:30am WNW 5 9 - - - - 10 - - 8.7 1009.9 0.4
13/04:00am NW 3 5 - - - - 10 - - 7.7 1010.0 0.4
13/03:30am WNW 3 5 - - - - 10 - - 7.5 1010.3 0.4
13/03:00am SW 6 7 - - - - 10 Mostly cloudy - 8.3 1010.4 0.4
13/02:58am SW 6 7 - - - - 10 - - 8.5 1010.4 0.4
13/02:30am CALM 0 0 - - - - 2 - - 7.1 1010.6 0.4
13/02:16am WNW 3 6 - - - - 5 - - 7.0 1010.7 0.4
13/02:13am WNW 4 6 - - - - 9 - - 7.3 1010.7 0.4
13/02:00am WSW 5 6 - - - - 3 - - 7.0 1010.8 0.4
13/01:37am W 1 3 - - - - 5 - - 8.0 1010.9 0.4
13/01:30am W 3 5 - - - - 7 - - 8.1 1011.0 0.4
13/01:28am WNW 3 6 - - - - 7 - - 8.0 1011.0 0.4
13/01:07am NW 3 5 - - - - 5 - - 8.3 1011.0 0.4
13/01:00am NW 4 5 - - - - 10 - - 8.2 1011.0 0.4
13/12:30am WNW 5 7 - - - - 10 - - 9.2 1011.1 0.4
13/12:00am N 4 4 - - - - 10 Mostly clear - 9.6 1011.1 0.4
 
Date/Time
EST
Wind Sea
Height
m
Swell Vis
km
Cloud Weather Temp
°C
Press
hPa
Rain since
9am
mm
Dir  Spd
kts
Gust
kts
Height
m
Period
s
Dir
12/11:30pm N 3 4 - - - - 10 - - 10.0 1011.4 0.4
12/11:00pm NW 4 5 - - - - 10 Partly cloudy - 10.8 1011.5 0.4
12/10:30pm W 3 4 - - - - 10 Cloudy - 11.2 1011.6 0.4
12/10:00pm CALM 0 0 - - - - 10 Cloudy - 11.6 1011.8 0.4
12/09:30pm CALM 0 0 - - - - 10 Partly cloudy - 11.7 1011.7 0.2
12/09:00pm NNW 1 3 - - - - 10 Mostly cloudy - 12.3 1011.7 0.2
12/08:30pm NW 3 5 - - - - 10 Cloudy - 12.4 1011.9 0.2
12/08:00pm NNW 5 6 - - - - 10 Cloudy - 12.2 1011.7 0.2
12/07:30pm NNW 5 7 - - - - 10 Cloudy - 11.9 1011.6 0.2
12/07:00pm N 1 5 - - - - 10 - - 11.9 1011.7 0.2
12/06:30pm NNW 3 5 - - - - 10 Partly cloudy - 12.4 1011.4 0.2
12/06:00pm N 4 6 - - - - 10 Mostly cloudy - 12.1 1011.1 0.2
12/05:30pm NNW 4 5 - - - - 10 Partly cloudy - 13.0 1011.1 0.2
12/05:00pm NNW 4 6 - - - - 10 Partly cloudy - 13.6 1010.8 0.2
12/04:30pm N 4 6 - - - - 10 Cloudy - 13.9 1010.8 0.2
12/04:00pm N 5 7 - - - - 10 Partly cloudy - 13.8 1010.8 0.2
12/03:30pm N 5 7 - - - - 10 Cloudy - 13.8 1010.8 0.2
12/03:00pm N 6 8 - - - - 10 Cloudy - 14.9 1010.9 0.0
12/02:30pm N 5 6 - - - - 10 Cloudy - 15.2 1010.9 0.0
12/02:00pm N 5 9 - - - - 10 - - 15.3 1011.0 0.0
12/01:30pm NNE 7 9 - - - - 10 - - 15.1 1011.2 0.0
12/01:00pm NNW 6 8 - - - - 10 - - 15.1 1011.6 0.0
12/12:30pm N 5 7 - - - - 10 Cloudy - 16.2 1012.3 0.0
12/12:00pm NNW 5 7 - - - - 10 Mostly cloudy - 15.0 1012.9 0.0
12/11:30am NNW 6 9 - - - - 10 Cloudy - 14.0 1013.6 0.0
12/11:00am NNW 5 8 - - - - 10 Cloudy - 13.5 1014.2 0.0
12/10:30am NNW 4 7 - - - - 10 Partly cloudy - 12.3 1014.7 0.0
12/10:00am N 4 7 - - - - 10 Partly cloudy - 12.7 1014.7 0.0
12/09:30am N 7 9 - - - - 10 Cloudy - 12.4 1015.1 0.0
12/09:00am N 6 10 - - - - 10 Cloudy - 12.4 1014.7 0.0
12/08:30am NNW 5 7 - - - - 10 - - 11.4 1014.8 0.0
12/08:00am NNW 6 9 - - - - 10 - - 11.0 1014.8 0.0
12/07:30am NNW 7 10 - - - - 10 - - 10.6 1014.7 0.0
12/07:00am NNW 7 10 - - - - 10 - - 10.1 1014.8 0.0
12/06:30am NNW 7 11 - - - - 10 - - 10.2 1014.7 0.0
12/06:00am NNW 7 9 - - - - 10 Cloudy - 9.3 1014.6 0.0
12/05:30am NNW 5 7 - - - - 10 - - 7.4 1014.7 0.0
12/05:00am NNW 3 5 - - - - 10 - - 6.8 1015.0 0.0
12/04:30am NNW 3 5 - - - - 10 - - 7.6 1014.8 0.0
12/04:00am NNW 5 8 - - - - 10 - - 8.8 1014.8 0.0
12/03:30am NW 4 7 - - - - 10 - - 8.2 1014.8 0.0
12/03:00am NNW 6 9 - - - - 10 Mostly clear - 7.7 1015.2 0.0
12/02:30am NNW 5 8 - - - - 10 - - 7.1 1015.5 0.0
12/02:00am N 6 10 - - - - 10 - - 7.6 1016.0 0.0
12/01:30am WSW 2 4 - - - - 10 - - 6.6 1016.3 0.0
12/01:00am NW 4 5 - - - - 10 - - 7.1 1016.5 0.0
12/12:30am W 2 4 - - - - 10 - - 6.9 1016.8 0.0
12/12:00am CALM 0 0 - - - - 10 Cloudy - 6.6 1016.6 0.0
 
Date/Time
EST
Wind Sea
Height
m
Swell Vis
km
Cloud Weather Temp
°C
Press
hPa
Rain since
9am
mm
Dir  Spd
kts
Gust
kts
Height
m
Period
s
Dir
11/11:30pm W 3 5 - - - - 10 - - 6.3 1016.7 0.0
11/11:00pm WSW 3 4 - - - - 10 - - 6.6 1017.1 0.0
11/10:30pm WSW 1 3 - - - - 10 - - 7.0 1017.1 0.0
11/10:00pm WNW 3 5 - - - - 10 - - 7.2 1017.3 0.0
11/09:30pm NW 3 5 - - - - 10 - - 7.6 1017.4 0.0
11/09:00pm W 3 4 - - - - 10 - - 8.0 1017.8 0.0
11/08:30pm N 4 6 - - - - 10 - - 8.9 1017.8 0.0
11/08:00pm NNW 5 7 - - - - 10 - - 9.6 1017.9 0.0
11/07:30pm N 6 8 - - - - 10 - - 11.0 1017.7 0.0
11/07:00pm N 5 8 - - - - 10 - - 10.9 1017.6 0.0
11/06:30pm N 6 9 - - - - 10 - - 12.7 1017.5 0.0
11/06:00pm N 6 9 - - - - 10 - - 12.9 1017.1 0.0
11/05:30pm N 8 11 - - - - 10 - - 13.3 1016.8 0.0
11/05:00pm NNE 13 17 - - - - 10 - - 14.5 1016.4 0.0
11/04:30pm NNE 13 16 - - - - 10 - - 14.9 1016.3 0.0
11/04:00pm NNE 13 18 - - - - 10 - - 15.4 1016.5 0.0
11/03:30pm NE 13 17 - - - - 10 - - 15.7 1016.8 0.0
11/03:00pm NE 13 17 - - - - 10 - - 16.1 1017.0 0.0
11/02:30pm NE 12 15 - - - - 10 Partly cloudy - 16.0 1017.1 0.0
11/02:00pm N 7 13 - - - - 10 - - 17.5 1017.4 0.0
11/01:30pm NNE 10 13 - - - - 10 - - 16.8 1017.7 0.0
11/01:00pm N 9 13 - - - - 10 - - 16.8 1018.0 0.0
11/12:30pm NNE 10 15 - - - - 10 Partly cloudy - 16.5 1018.5 0.0
11/12:00pm N 8 14 - - - - 10 Mostly clear - 16.3 1019.2 0.0
11/11:30am NNW 9 14 - - - - 10 Partly cloudy - 16.0 1019.9 0.0
11/11:00am N 7 12 - - - - 10 Cloudy - 15.7 1020.4 0.0
11/10:30am W 6 9 - - - - 10 Partly cloudy - 14.8 1020.8 0.0

Other formats

Comma delimited format used in spreadsheet applications
http://www.bom.gov.au/fwo/IDN60701/IDN60701.95937.axf

JavaScript Object Notation format (JSON) in row-major order
http://www.bom.gov.au/fwo/IDN60701/IDN60701.95937.json

Data quality

Most of these data are generated automatically and are frequently updated. Quality checks on data are not normally performed. It is possible for incorrect values to appear. Refer to information at About Latest Weather Observations and please check the disclaimer before using these data.